sensor_id;sensor_type;location;lat;lon;timestamp;temperature;humidity
63407;SHT31;49543;45.892;10.838;2023-04-03T07:46:06;16.57;52.50
63407;SHT31;49543;45.892;10.838;2023-04-03T07:48:31;16.73;52.41
63407;SHT31;49543;45.892;10.838;2023-04-03T09:32:50;17.02;62.82
63407;SHT31;49543;45.892;10.838;2023-04-03T09:35:19;17.07;63.04
63407;SHT31;49543;45.892;10.838;2023-04-03T09:37:45;17.19;62.98
63407;SHT31;49543;45.892;10.838;2023-04-03T09:42:52;16.89;65.39
63407;SHT31;49543;45.892;10.838;2023-04-03T09:45:31;16.92;66.41
63407;SHT31;49543;45.892;10.838;2023-04-03T09:48:15;16.89;66.70
63407;SHT31;49543;45.892;10.838;2023-04-03T09:51:02;16.91;66.44
63407;SHT31;49543;45.892;10.838;2023-04-03T09:53:41;16.91;65.46
63407;SHT31;49543;45.892;10.838;2023-04-03T09:58:42;17.02;65.79
63407;SHT31;49543;45.892;10.838;2023-04-03T10:01:20;17.19;65.47
63407;SHT31;49543;45.892;10.838;2023-04-03T10:03:45;17.25;63.82
63407;SHT31;49543;45.892;10.838;2023-04-03T10:06:26;17.29;64.50
63407;SHT31;49543;45.892;10.838;2023-04-03T10:09:00;17.36;63.38
63407;SHT31;49543;45.892;10.838;2023-04-03T10:11:26;17.45;62.61
63407;SHT31;49543;45.892;10.838;2023-04-03T10:13:52;17.54;63.72
63407;SHT31;49543;45.892;10.838;2023-04-03T10:16:20;18.00;63.23
63407;SHT31;49543;45.892;10.838;2023-04-03T10:18:56;18.19;60.98
63407;SHT31;49543;45.892;10.838;2023-04-03T10:24:00;19.01;59.71
63407;SHT31;49543;45.892;10.838;2023-04-03T10:31:45;19.87;58.40
63407;SHT31;49543;45.892;10.838;2023-04-03T10:46:42;20.85;55.85
63407;SHT31;49543;45.892;10.838;2023-04-03T10:49:18;20.80;57.02
63407;SHT31;49543;45.892;10.838;2023-04-03T10:51:48;21.20;54.61
63407;SHT31;49543;45.892;10.838;2023-04-03T10:54:24;21.47;54.23
63407;SHT31;49543;45.892;10.838;2023-04-03T10:56:51;21.81;53.66
63407;SHT31;49543;45.892;10.838;2023-04-03T11:01:44;21.86;52.49
63407;SHT31;49543;45.892;10.838;2023-04-03T11:04:11;21.88;52.35
63407;SHT31;49543;45.892;10.838;2023-04-03T11:06:39;21.92;53.57
63407;SHT31;49543;45.892;10.838;2023-04-03T11:09:26;22.31;52.97
63407;SHT31;49543;45.892;10.838;2023-04-03T11:11:56;22.84;52.96
63407;SHT31;49543;45.892;10.838;2023-04-03T11:22:50;22.81;51.65
63407;SHT31;49543;45.892;10.838;2023-04-03T11:24:57;22.33;51.36
63407;SHT31;49543;45.892;10.838;2023-04-03T11:27:24;22.36;51.67
63407;SHT31;49543;45.892;10.838;2023-04-03T11:29:50;22.36;51.27
63407;SHT31;49543;45.892;10.838;2023-04-03T11:32:33;22.00;53.23
63407;SHT31;49543;45.892;10.838;2023-04-03T11:35:00;22.43;53.48
63407;SHT31;49543;45.892;10.838;2023-04-03T11:37:41;22.82;51.84
63407;SHT31;49543;45.892;10.838;2023-04-03T11:42:42;23.54;50.80
63407;SHT31;49543;45.892;10.838;2023-04-03T11:45:15;23.46;50.15
63407;SHT31;49543;45.892;10.838;2023-04-03T11:47:49;23.58;49.64
63407;SHT31;49543;45.892;10.838;2023-04-03T14:12:48;18.64;53.82
63407;SHT31;49543;45.892;10.838;2023-04-03T14:15:23;18.31;54.54
63407;SHT31;49543;45.892;10.838;2023-04-03T14:17:50;18.09;55.27
63407;SHT31;49543;45.892;10.838;2023-04-03T14:20:19;17.93;55.57
63407;SHT31;49543;45.892;10.838;2023-04-03T14:22:45;17.78;56.16
63407;SHT31;49543;45.892;10.838;2023-04-03T14:25:11;17.67;55.89
63407;SHT31;49543;45.892;10.838;2023-04-03T14:27:40;17.51;56.18
63407;SHT31;49543;45.892;10.838;2023-04-03T14:30:12;17.30;56.62
63407;SHT31;49543;45.892;10.838;2023-04-03T14:32:38;17.15;56.75
63407;SHT31;49543;45.892;10.838;2023-04-03T14:35:04;17.14;57.06
63407;SHT31;49543;45.892;10.838;2023-04-03T14:37:31;17.16;56.92
63407;SHT31;49543;45.892;10.838;2023-04-03T14:39:58;17.16;57.09
63407;SHT31;49543;45.892;10.838;2023-04-03T14:42:28;17.14;56.92
63407;SHT31;49543;45.892;10.838;2023-04-03T14:44:53;17.15;57.11
63407;SHT31;49543;45.892;10.838;2023-04-03T14:47:21;17.14;57.17
63407;SHT31;49543;45.892;10.838;2023-04-03T14:49:48;17.10;57.01
63407;SHT31;49543;45.892;10.838;2023-04-03T14:52:27;16.96;57.29
63407;SHT31;49543;45.892;10.838;2023-04-03T14:54:53;16.94;57.68
63407;SHT31;49543;45.892;10.838;2023-04-03T14:57:28;16.84;57.26
63407;SHT31;49543;45.892;10.838;2023-04-03T14:59:55;16.77;57.73
63407;SHT31;49543;45.892;10.838;2023-04-03T15:04:54;16.71;57.71
63407;SHT31;49543;45.892;10.838;2023-04-03T15:07:20;16.66;57.69
63407;SHT31;49543;45.892;10.838;2023-04-03T15:09:46;16.59;57.86
63407;SHT31;49543;45.892;10.838;2023-04-03T15:12:12;16.53;57.98
63407;SHT31;49543;45.892;10.838;2023-04-03T15:14:37;16.53;58.52
63407;SHT31;49543;45.892;10.838;2023-04-03T15:17:08;16.53;57.91
63407;SHT31;49543;45.892;10.838;2023-04-03T15:19:39;16.46;58.26
63407;SHT31;49543;45.892;10.838;2023-04-03T15:22:05;16.42;58.00
63407;SHT31;49543;45.892;10.838;2023-04-03T15:24:30;16.45;58.30
63407;SHT31;49543;45.892;10.838;2023-04-03T15:26:56;16.32;58.08
63407;SHT31;49543;45.892;10.838;2023-04-03T15:29:22;16.28;58.50
63407;SHT31;49543;45.892;10.838;2023-04-03T15:31:47;16.22;58.29
63407;SHT31;49543;45.892;10.838;2023-04-03T15:34:15;16.19;58.82
63407;SHT31;49543;45.892;10.838;2023-04-03T15:36:44;16.18;58.33
63407;SHT31;49543;45.892;10.838;2023-04-03T15:39:09;16.15;58.55
63407;SHT31;49543;45.892;10.838;2023-04-03T15:41:35;16.10;59.00
63407;SHT31;49543;45.892;10.838;2023-04-03T15:44:00;16.12;58.70
63407;SHT31;49543;45.892;10.838;2023-04-03T15:46:26;16.09;58.51
63407;SHT31;49543;45.892;10.838;2023-04-03T15:48:51;16.04;58.54
63407;SHT31;49543;45.892;10.838;2023-04-03T15:51:17;15.99;58.55
63407;SHT31;49543;45.892;10.838;2023-04-03T15:53:43;15.95;58.84
63407;SHT31;49543;45.892;10.838;2023-04-03T15:56:08;15.94;59.11
63407;SHT31;49543;45.892;10.838;2023-04-03T15:58:35;15.85;58.91
63407;SHT31;49543;45.892;10.838;2023-04-03T16:01:01;15.84;59.18
63407;SHT31;49543;45.892;10.838;2023-04-03T16:03:27;15.84;59.03
63407;SHT31;49543;45.892;10.838;2023-04-03T16:05:53;15.81;59.10
63407;SHT31;49543;45.892;10.838;2023-04-03T16:08:19;15.82;59.14
63407;SHT31;49543;45.892;10.838;2023-04-03T16:10:44;15.80;59.39
63407;SHT31;49543;45.892;10.838;2023-04-03T16:13:13;15.78;59.26
63407;SHT31;49543;45.892;10.838;2023-04-03T16:15:39;15.80;59.33
63407;SHT31;49543;45.892;10.838;2023-04-03T16:18:05;15.77;59.53
63407;SHT31;49543;45.892;10.838;2023-04-03T16:20:30;15.78;59.24
63407;SHT31;49543;45.892;10.838;2023-04-03T16:22:58;15.84;59.27
63407;SHT31;49543;45.892;10.838;2023-04-03T16:25:25;15.84;58.86
63407;SHT31;49543;45.892;10.838;2023-04-03T16:27:52;15.85;58.98
63407;SHT31;49543;45.892;10.838;2023-04-03T16:30:18;15.81;59.06
63407;SHT31;49543;45.892;10.838;2023-04-03T16:32:44;15.80;59.30
63407;SHT31;49543;45.892;10.838;2023-04-03T16:35:10;15.77;59.38
63407;SHT31;49543;45.892;10.838;2023-04-03T16:37:36;15.74;59.53
63407;SHT31;49543;45.892;10.838;2023-04-03T16:40:03;15.71;59.73
63407;SHT31;49543;45.892;10.838;2023-04-03T16:42:30;15.68;59.62
63407;SHT31;49543;45.892;10.838;2023-04-03T16:44:55;15.68;59.64
63407;SHT31;49543;45.892;10.838;2023-04-03T16:47:21;15.67;60.04
63407;SHT31;49543;45.892;10.838;2023-04-03T16:49:46;15.70;59.58
63407;SHT31;49543;45.892;10.838;2023-04-03T16:52:12;15.70;60.73
63407;SHT31;49543;45.892;10.838;2023-04-03T16:54:37;15.63;60.79
63407;SHT31;49543;45.892;10.838;2023-04-03T16:57:03;15.61;60.90
63407;SHT31;49543;45.892;10.838;2023-04-03T16:59:29;15.63;61.22
63407;SHT31;49543;45.892;10.838;2023-04-03T17:01:54;15.64;61.52
63407;SHT31;49543;45.892;10.838;2023-04-03T17:04:20;15.70;61.63
63407;SHT31;49543;45.892;10.838;2023-04-03T17:06:45;15.72;61.61
63407;SHT31;49543;45.892;10.838;2023-04-03T17:09:11;15.72;61.62
63407;SHT31;49543;45.892;10.838;2023-04-03T17:11:37;15.72;61.95
63407;SHT31;49543;45.892;10.838;2023-04-03T17:14:04;15.68;62.14
63407;SHT31;49543;45.892;10.838;2023-04-03T17:16:30;15.68;62.44
63407;SHT31;49543;45.892;10.838;2023-04-03T17:18:56;15.67;62.27
63407;SHT31;49543;45.892;10.838;2023-04-03T17:21:22;15.60;62.14
63407;SHT31;49543;45.892;10.838;2023-04-03T17:23:51;15.57;62.63
63407;SHT31;49543;45.892;10.838;2023-04-03T17:26:19;15.47;63.00
63407;SHT31;49543;45.892;10.838;2023-04-03T17:28:46;15.29;62.67
63407;SHT31;49543;45.892;10.838;2023-04-03T17:31:11;15.25;63.15
63407;SHT31;49543;45.892;10.838;2023-04-03T17:33:37;15.25;63.49
63407;SHT31;49543;45.892;10.838;2023-04-03T17:36:03;15.23;63.49
63407;SHT31;49543;45.892;10.838;2023-04-03T17:38:33;15.20;63.49
63407;SHT31;49543;45.892;10.838;2023-04-03T17:41:00;15.22;63.19
63407;SHT31;49543;45.892;10.838;2023-04-03T17:43:25;15.20;63.32
63407;SHT31;49543;45.892;10.838;2023-04-03T17:45:51;15.16;63.51
63407;SHT31;49543;45.892;10.838;2023-04-03T17:48:17;15.19;63.56
63407;SHT31;49543;45.892;10.838;2023-04-03T17:50:42;15.18;63.42
63407;SHT31;49543;45.892;10.838;2023-04-03T17:53:08;15.16;63.23
63407;SHT31;49543;45.892;10.838;2023-04-03T17:55:37;15.15;63.40
63407;SHT31;49543;45.892;10.838;2023-04-03T17:58:02;15.12;63.41
63407;SHT31;49543;45.892;10.838;2023-04-03T18:00:28;15.10;63.46
63407;SHT31;49543;45.892;10.838;2023-04-03T18:02:54;15.06;63.64
63407;SHT31;49543;45.892;10.838;2023-04-03T18:05:20;15.03;63.51
63407;SHT31;49543;45.892;10.838;2023-04-03T18:07:45;15.03;63.41
63407;SHT31;49543;45.892;10.838;2023-04-03T18:10:11;14.98;63.15
63407;SHT31;49543;45.892;10.838;2023-04-03T18:12:39;15.00;63.14
63407;SHT31;49543;45.892;10.838;2023-04-03T18:15:06;14.99;63.19
63407;SHT31;49543;45.892;10.838;2023-04-03T18:17:32;14.95;62.92
63407;SHT31;49543;45.892;10.838;2023-04-03T18:19:57;14.89;63.27
63407;SHT31;49543;45.892;10.838;2023-04-03T18:22:23;14.87;63.52
63407;SHT31;49543;45.892;10.838;2023-04-03T18:24:50;14.84;63.11
63407;SHT31;49543;45.892;10.838;2023-04-03T18:27:21;14.81;62.40
63407;SHT31;49543;45.892;10.838;2023-04-03T18:29:52;14.75;62.12
63407;SHT31;49543;45.892;10.838;2023-04-03T18:32:20;14.69;62.57
63407;SHT31;49543;45.892;10.838;2023-04-03T18:34:46;14.67;62.79
63407;SHT31;49543;45.892;10.838;2023-04-03T18:37:11;14.65;62.50
63407;SHT31;49543;45.892;10.838;2023-04-03T18:39:37;14.67;62.55
63407;SHT31;49543;45.892;10.838;2023-04-03T18:42:06;14.67;63.10
63407;SHT31;49543;45.892;10.838;2023-04-03T18:44:32;14.61;62.90
63407;SHT31;49543;45.892;10.838;2023-04-03T18:46:58;14.54;62.93
63407;SHT31;49543;45.892;10.838;2023-04-03T18:49:27;14.54;63.09
63407;SHT31;49543;45.892;10.838;2023-04-03T18:51:54;14.52;63.17
63407;SHT31;49543;45.892;10.838;2023-04-03T18:54:19;14.54;63.24
63407;SHT31;49543;45.892;10.838;2023-04-03T18:56:45;14.57;63.26
63407;SHT31;49543;45.892;10.838;2023-04-03T18:59:11;14.56;62.83
63407;SHT31;49543;45.892;10.838;2023-04-03T19:01:37;14.52;62.54
63407;SHT31;49543;45.892;10.838;2023-04-03T19:04:03;14.52;62.95
63407;SHT31;49543;45.892;10.838;2023-04-03T19:06:29;14.52;63.11
63407;SHT31;49543;45.892;10.838;2023-04-03T19:08:54;14.51;62.47
63407;SHT31;49543;45.892;10.838;2023-04-03T19:11:20;14.48;62.74
63407;SHT31;49543;45.892;10.838;2023-04-03T19:13:45;14.50;62.75
63407;SHT31;49543;45.892;10.838;2023-04-03T19:16:11;14.48;62.29
63407;SHT31;49543;45.892;10.838;2023-04-03T19:18:37;14.48;62.50
63407;SHT31;49543;45.892;10.838;2023-04-03T19:21:03;14.52;62.57
63407;SHT31;49543;45.892;10.838;2023-04-03T19:23:29;14.56;62.00
63407;SHT31;49543;45.892;10.838;2023-04-03T19:25:59;14.51;61.14
63407;SHT31;49543;45.892;10.838;2023-04-03T19:28:25;14.43;61.79
63407;SHT31;49543;45.892;10.838;2023-04-03T19:30:51;14.37;61.48
63407;SHT31;49543;45.892;10.838;2023-04-03T19:33:17;14.38;61.41
63407;SHT31;49543;45.892;10.838;2023-04-03T19:35:43;14.40;60.74
63407;SHT31;49543;45.892;10.838;2023-04-03T19:38:08;14.40;60.56
63407;SHT31;49543;45.892;10.838;2023-04-03T19:40:34;14.41;60.60
63407;SHT31;49543;45.892;10.838;2023-04-03T19:43:02;14.48;60.67
63407;SHT31;49543;45.892;10.838;2023-04-03T19:45:28;14.40;61.04
63407;SHT31;49543;45.892;10.838;2023-04-03T19:47:54;14.36;61.78
63407;SHT31;49543;45.892;10.838;2023-04-03T19:50:23;14.24;62.13
63407;SHT31;49543;45.892;10.838;2023-04-03T19:52:48;14.14;62.62
63407;SHT31;49543;45.892;10.838;2023-04-03T19:55:14;14.10;62.78
63407;SHT31;49543;45.892;10.838;2023-04-03T19:57:40;14.10;62.74
63407;SHT31;49543;45.892;10.838;2023-04-03T20:05:16;13.90;63.19
63407;SHT31;49543;45.892;10.838;2023-04-03T20:07:41;13.89;63.36
63407;SHT31;49543;45.892;10.838;2023-04-03T20:10:07;13.87;63.08
63407;SHT31;49543;45.892;10.838;2023-04-03T20:12:33;13.81;62.35
63407;SHT31;49543;45.892;10.838;2023-04-03T20:15:03;13.83;62.36
63407;SHT31;49543;45.892;10.838;2023-04-03T20:17:31;13.85;62.85
63407;SHT31;49543;45.892;10.838;2023-04-03T20:19:57;13.85;63.01
63407;SHT31;49543;45.892;10.838;2023-04-03T20:22:28;13.90;62.91
63407;SHT31;49543;45.892;10.838;2023-04-03T20:24:55;13.93;62.59
63407;SHT31;49543;45.892;10.838;2023-04-03T20:27:21;13.95;62.68
63407;SHT31;49543;45.892;10.838;2023-04-03T20:29:46;13.87;63.03
63407;SHT31;49543;45.892;10.838;2023-04-03T20:32:12;13.85;62.96
63407;SHT31;49543;45.892;10.838;2023-04-03T20:34:39;13.79;63.18
63407;SHT31;49543;45.892;10.838;2023-04-03T20:37:04;13.72;63.15
63407;SHT31;49543;45.892;10.838;2023-04-03T20:39:31;13.71;61.27
63407;SHT31;49543;45.892;10.838;2023-04-03T20:41:56;13.65;56.59
63407;SHT31;49543;45.892;10.838;2023-04-03T20:44:22;13.67;57.74
63407;SHT31;49543;45.892;10.838;2023-04-03T20:46:47;13.62;56.82
63407;SHT31;49543;45.892;10.838;2023-04-03T20:49:13;13.55;55.96
63407;SHT31;49543;45.892;10.838;2023-04-03T20:51:38;13.53;53.55
63407;SHT31;49543;45.892;10.838;2023-04-03T20:54:04;13.51;52.12
63407;SHT31;49543;45.892;10.838;2023-04-03T20:56:31;13.51;51.08
63407;SHT31;49543;45.892;10.838;2023-04-03T20:58:59;13.48;45.85
63407;SHT31;49543;45.892;10.838;2023-04-03T21:01:30;13.47;44.29
63407;SHT31;49543;45.892;10.838;2023-04-03T21:04:02;13.40;42.36
63407;SHT31;49543;45.892;10.838;2023-04-03T21:20:53;13.30;40.77
63407;SHT31;49543;45.892;10.838;2023-04-03T21:23:19;13.36;40.82
63407;SHT31;49543;45.892;10.838;2023-04-03T21:25:45;13.30;40.64
63407;SHT31;49543;45.892;10.838;2023-04-03T21:28:10;13.24;39.55
63407;SHT31;49543;45.892;10.838;2023-04-03T21:30:36;13.26;39.79
63407;SHT31;49543;45.892;10.838;2023-04-03T21:33:02;13.21;37.92
63407;SHT31;49543;45.892;10.838;2023-04-03T21:35:27;13.16;38.13
63407;SHT31;49543;45.892;10.838;2023-04-03T21:37:52;13.13;37.94
63407;SHT31;49543;45.892;10.838;2023-04-03T21:40:18;13.09;38.46
63407;SHT31;49543;45.892;10.838;2023-04-03T21:42:43;13.14;39.12
63407;SHT31;49543;45.892;10.838;2023-04-03T21:45:09;13.11;39.08
63407;SHT31;49543;45.892;10.838;2023-04-03T21:47:35;13.07;38.66
63407;SHT31;49543;45.892;10.838;2023-04-03T21:50:01;13.02;38.82
